Terminal Aerodrome Forecast
Issued by NWS

Home | Current Version | Previous Version | Text Only | Print | Product List | Glossary On
Versions: 1 2 3 4 5 6 7 8 9 10 11 12 13 14
000
FTUS45 KRIW 240500
TAFPNA
TAF
KPNA 240530Z 2406/2506 28008KT P6SM SCT060 SCT100
     FM241900 26014G24KT P6SM SCT060 BKN080
     FM250100 28008KT P6SM SCT080 BKN200
      AMD LTD TO CLD VIS AND WIND=

USA.gov is the U.S. government's official web portal to all federal, state and local government web resources and services.